Mazong Shan, China
Current Conditions -  °F | °C
As of 11:00 PM on Saturday 25 Oct 2014 (Local Time) from ZWWW Reporting Station
Smoke Smoke  
Wind Chill: 54°   Ceiling: Unl
Heat Index: 54°   Visibility: 2.5mi
Dew Point: 45°   Wind: 7mph
Humidity: 72%   Direction: 160°SSE
Pressure: 30.09"   Gusts: NA
Location:  41.8°N, 97.03°E
Report Text: ZWWW 251500Z 16003MPS 100V210 4000 FU NSC 12/07 Q1019 NOSIG
Loading
Personal Weather Stations






























Interactive Weather Map
Tropical Storm Tracking
New forecast layout! Learn more

10-Day Weather Forecast

Advertisements
Track Severe Weather on mobile